TimeEDT,TemperatureF,Dew PointF,Humidity,Sea Level PressureIn,VisibilityMPH,Wind Direction,Wind SpeedMPH,Gust SpeedMPH,PrecipitationIn,Events,Conditions,WindDirDegrees,DateUTC
12:15 AM,64.4,60.8,88,30.01,7.0,SW,3.5,-,N/A,,Clear,220,2013-05-11 04:15:00
12:35 AM,64.4,60.8,88,30.01,7.0,SW,3.5,-,N/A,,Clear,230,2013-05-11 04:35:00
12:55 AM,64.4,60.8,88,30.01,7.0,SW,4.6,-,N/A,,Clear,230,2013-05-11 04:55:00
1:15 AM,64.4,59.0,83,30.01,7.0,Calm,Calm,-,N/A,,Clear,0,2013-05-11 05:15:00
1:35 AM,64.4,59.0,83,30.00,7.0,WSW,3.5,-,N/A,,Clear,240,2013-05-11 05:35:00
1:55 AM,64.4,59.0,83,29.99,7.0,WSW,3.5,-,N/A,,Clear,250,2013-05-11 05:55:00
2:15 AM,64.4,59.0,83,29.98,7.0,Calm,Calm,-,N/A,,Clear,0,2013-05-11 06:15:00
2:35 AM,64.4,59.0,83,29.98,7.0,Calm,Calm,-,N/A,,Clear,0,2013-05-11 06:35:00
2:55 AM,62.6,60.8,94,29.97,7.0,Calm,Calm,-,N/A,,Scattered Clouds,0,2013-05-11 06:55:00
3:15 AM,64.4,60.8,88,29.97,7.0,SSW,3.5,-,N/A,,Scattered Clouds,210,2013-05-11 07:15:00
3:35 AM,64.4,60.8,88,29.97,7.0,Calm,Calm,-,N/A,,Scattered Clouds,0,2013-05-11 07:35:00
3:55 AM,62.6,60.8,94,29.96,7.0,Calm,Calm,-,N/A,,Clear,0,2013-05-11 07:55:00
4:15 AM,62.6,59.0,88,29.96,7.0,Calm,Calm,-,N/A,,Clear,0,2013-05-11 08:15:00
4:35 AM,62.6,60.8,94,29.96,7.0,Calm,Calm,-,N/A,,Clear,0,2013-05-11 08:35:00
4:55 AM,60.8,60.8,100,29.96,7.0,Calm,Calm,-,N/A,,Clear,0,2013-05-11 08:55:00
5:15 AM,60.8,60.8,100,29.95,7.0,Calm,Calm,-,N/A,,Clear,0,2013-05-11 09:15:00
5:35 AM,60.8,60.8,100,29.95,7.0,Calm,Calm,-,N/A,,Clear,0,2013-05-11 09:35:00
5:55 AM,60.8,59.0,94,29.95,7.0,Calm,Calm,-,N/A,,Clear,0,2013-05-11 09:55:00
6:15 AM,59.0,59.0,100,29.95,7.0,Calm,Calm,-,N/A,,Clear,0,2013-05-11 10:15:00
6:35 AM,60.8,59.0,94,29.95,7.0,Calm,Calm,-,N/A,,Clear,0,2013-05-11 10:35:00
6:55 AM,60.8,59.0,94,29.95,5.0,Calm,Calm,-,N/A,,Clear,0,2013-05-11 10:55:00
7:15 AM,59.0,59.0,100,29.96,5.0,SW,3.5,-,N/A,,Clear,230,2013-05-11 11:15:00
7:35 AM,60.8,59.0,94,29.96,5.0,WSW,3.5,-,N/A,,Clear,240,2013-05-11 11:35:00
7:55 AM,64.4,60.8,88,29.96,5.0,Calm,Calm,-,N/A,,Clear,0,2013-05-11 11:55:00
8:15 AM,64.4,59.0,83,29.97,7.0,WSW,4.6,-,N/A,,Clear,240,2013-05-11 12:15:00
8:35 AM,66.2,60.8,83,29.97,7.0,West,5.8,-,N/A,,Clear,260,2013-05-11 12:35:00
8:55 AM,69.8,60.8,73,29.97,5.0,SW,3.5,-,N/A,,Haze,230,2013-05-11 12:55:00
9:15 AM,71.6,62.6,73,29.98,7.0,West,5.8,-,N/A,,Clear,260,2013-05-11 13:15:00
9:35 AM,73.4,60.8,65,29.98,7.0,WNW,9.2,-,N/A,,Clear,290,2013-05-11 13:35:00
9:55 AM,73.4,60.8,65,29.98,7.0,West,9.2,-,N/A,,Clear,280,2013-05-11 13:55:00
10:15 AM,73.4,59.0,61,29.97,7.0,West,9.2,-,N/A,,Clear,260,2013-05-11 14:15:00
10:35 AM,73.4,59.0,61,29.97,7.0,WNW,8.1,16.1,N/A,,Scattered Clouds,300,2013-05-11 14:35:00
10:55 AM,73.4,57.2,57,29.96,7.0,WNW,6.9,-,N/A,,Scattered Clouds,290,2013-05-11 14:55:00
11:15 AM,73.4,57.2,57,29.96,7.0,West,5.8,-,N/A,,Scattered Clouds,270,2013-05-11 15:15:00
11:35 AM,77.0,59.0,54,29.96,7.0,West,12.7,-,N/A,,Scattered Clouds,280,2013-05-11 15:35:00
11:55 AM,77.0,59.0,54,29.96,7.0,West,8.1,-,N/A,,Scattered Clouds,270,2013-05-11 15:55:00
12:15 PM,77.0,59.0,54,29.96,7.0,West,10.4,-,N/A,,Scattered Clouds,260,2013-05-11 16:15:00
12:35 PM,77.0,57.2,50,29.97,7.0,West,9.2,-,N/A,,Scattered Clouds,280,2013-05-11 16:35:00
12:55 PM,78.8,59.0,51,29.97,7.0,West,8.1,-,N/A,,Scattered Clouds,270,2013-05-11 16:55:00
1:15 PM,78.8,59.0,51,29.96,7.0,WSW,9.2,-,N/A,,Clear,240,2013-05-11 17:15:00
1:35 PM,78.8,59.0,51,29.95,7.0,West,9.2,-,N/A,,Clear,260,2013-05-11 17:35:00
1:55 PM,78.8,59.0,51,29.94,7.0,WSW,6.9,-,N/A,,Unknown,250,2013-05-11 17:55:00
2:15 PM,78.8,57.2,47,29.94,7.0,WSW,9.2,-,N/A,,Unknown,240,2013-05-11 18:15:00
2:35 PM,78.8,57.2,47,29.94,7.0,SW,8.1,16.1,N/A,,Unknown,220,2013-05-11 18:35:00
2:55 PM,78.8,59.0,51,29.94,7.0,WSW,5.8,-,N/A,,Unknown,250,2013-05-11 18:55:00
3:15 PM,78.8,59.0,51,29.92,7.0,SW,11.5,-,N/A,,Clear,230,2013-05-11 19:15:00
3:35 PM,78.8,59.0,51,29.93,7.0,WSW,9.2,-,N/A,,Scattered Clouds,250,2013-05-11 19:35:00
3:55 PM,78.8,59.0,51,29.92,7.0,WSW,10.4,16.1,N/A,,Scattered Clouds,240,2013-05-11 19:55:00
4:15 PM,78.8,60.8,54,29.91,7.0,WSW,9.2,-,N/A,,Clear,240,2013-05-11 20:15:00
4:35 PM,78.8,60.8,54,29.92,7.0,WSW,9.2,-,N/A,,Clear,250,2013-05-11 20:35:00
4:55 PM,78.8,60.8,54,29.91,7.0,WSW,10.4,-,N/A,,Scattered Clouds,250,2013-05-11 20:55:00
5:15 PM,77.0,60.8,57,29.91,7.0,WSW,6.9,-,N/A,,Clear,240,2013-05-11 21:15:00
5:35 PM,77.0,60.8,57,29.90,7.0,SW,9.2,-,N/A,,Scattered Clouds,230,2013-05-11 21:35:00
5:55 PM,77.0,60.8,57,29.89,7.0,SW,6.9,-,N/A,,Scattered Clouds,230,2013-05-11 21:55:00
6:15 PM,73.4,60.8,65,29.89,7.0,WSW,3.5,-,N/A,,Clear,240,2013-05-11 22:15:00
6:35 PM,73.4,60.8,65,29.90,7.0,SW,5.8,-,N/A,,Clear,230,2013-05-11 22:35:00
6:55 PM,73.4,60.8,65,29.90,7.0,SW,4.6,-,N/A,,Clear,220,2013-05-11 22:55:00
7:15 PM,73.4,62.6,69,29.88,7.0,SSW,3.5,-,N/A,,Clear,200,2013-05-11 23:15:00
7:35 PM,73.4,62.6,69,29.89,7.0,WSW,4.6,-,N/A,,Clear,240,2013-05-11 23:35:00
7:55 PM,73.4,62.6,69,29.89,7.0,SW,4.6,-,N/A,,Clear,230,2013-05-11 23:55:00
8:15 PM,73.4,62.6,69,29.90,7.0,WSW,8.1,-,N/A,,Clear,240,2013-05-12 00:15:00
8:35 PM,73.4,62.6,69,29.91,7.0,West,6.9,-,N/A,,Clear,280,2013-05-12 00:35:00
8:55 PM,71.6,59.0,64,29.93,7.0,NW,6.9,-,N/A,,Mostly Cloudy,320,2013-05-12 00:55:00
9:15 PM,68.0,55.4,64,29.93,7.0,NW,9.2,17.3,N/A,Rain,Light Rain,310,2013-05-12 01:15:00
9:35 PM,64.4,62.6,94,29.92,10.0,Calm,Calm,-,N/A,Rain,Light Rain,0,2013-05-12 01:35:00
9:55 PM,64.4,62.6,94,29.92,10.0,Calm,Calm,-,N/A,,Scattered Clouds,0,2013-05-12 01:55:00
10:15 PM,64.4,62.6,94,29.92,7.0,Calm,Calm,-,N/A,,Clear,0,2013-05-12 02:15:00
10:35 PM,64.4,62.6,94,29.92,7.0,Calm,Calm,-,N/A,,Clear,0,2013-05-12 02:35:00
10:55 PM,64.4,62.6,94,29.92,7.0,Calm,Calm,-,N/A,,Clear,0,2013-05-12 02:55:00
11:15 PM,64.4,62.6,94,29.93,7.0,NNW,4.6,-,N/A,,Scattered Clouds,330,2013-05-12 03:15:00
11:35 PM,64.4,64.4,100,29.92,7.0,WNW,4.6,-,N/A,,Scattered Clouds,300,2013-05-12 03:35:00
11:55 PM,64.4,64.4,100,29.92,7.0,WNW,3.5,-,N/A,,Scattered Clouds,300,2013-05-12 03:55:00